RJOHRJAA

Guest
Details From RJOH - Miho
To RJAA - Narita Intl
Flight Number -
Tags Routegen Generated
Created
Modified
Stats Distance 352 nm / 651 km
Max Altitude 3,800 ft / 1,158 m
Waypoints 10
Social Downloads 0
Likes 0
Share VATSIM

Download

Looking for another format? Having issues loading an existing format? Contact us
Advertisement - Login to hide

Notes

Departing runway 6 RJOH. Arriving runway 14 RJAA.

Route

RJOH +35.53_+133.33 +35.53_+133.40 +35.67_+135.23 +35.78_+137.08 +35.89_+140.13 +35.89_+140.20 +35.87_+140.27 +35.84_+140.32 RJAA

ID Type Via Altitude Latitude Longitude Leg Dist Tot Dist Heading (true) Name
O RJOH APT - 0 ft / 0 m 35.49543˚ 133.24562˚ - 0 nm - -
+35.53_+133.33 LATLON - 1,110 ft / 338 m 35.52734˚ 133.32541˚ 4 nm 4 nm 64° / 64° -
+35.53_+133.40 LATLON - 3,800 ft / 1,158 m 35.53357˚ 133.39614˚ 3 nm 7 nm 84° / 84° -
+35.67_+135.23 LATLON - 3,800 ft / 1,158 m 35.66840˚ 135.23375˚ 90 nm 97 nm 84° / 85° -
+35.78_+137.08 LATLON - 3,800 ft / 1,158 m 35.77616˚ 137.08093˚ 90 nm 188 nm 85° / 86° -
+35.89_+140.13 LATLON - 3,800 ft / 1,158 m 35.89274˚ 140.12935˚ 148 nm 336 nm 86° / 88° -
+35.89_+140.20 LATLON - 3,770 ft / 1,149 m 35.89314˚ 140.20081˚ 3 nm 340 nm 90° / 90° -
+35.87_+140.27 LATLON - 2,790 ft / 850 m 35.87372˚ 140.26812˚ 3 nm 343 nm 110° / 110° -
+35.84_+140.32 LATLON - 1,110 ft / 338 m 35.83681˚ 140.32315˚ 3 nm 347 nm 130° / 130° -
O RJAA APT - 0 ft / 0 m 35.77439˚ 140.36829˚ 4 nm 351 nm 150° / 150° -

Altitude Profile

Advertisement - Login to hide

Weather


0- 5 10 15 20 25 30 35+ Temperature / ° C

Clouds and Precipitation
Forecast for 2017-12-14 00:00 UTC. Updated an hour ago

Ground ~20,000 ft ~40,000 ft Winds

RJOH

Details ICAO RJOH (YGJ)
Name MIHO
Region Japan
Timezone Asia/Tokyo (UTC+9.0)
Stats Elevation 20 ft / 6 m (AMSL)
Location 35.491467° 133.235719°
Runways 1
Magnetic Variation 8.018° W

METAR

RJOH 140000Z 36008KT 9999 FEW025 SCT050 BKN070 06/M03 Q1028

Decode

TAF

TAF RJOH 132305Z 1400/1506 02009KT 9999 FEW015 BKN040 BECMG 1412/1415 18007KT BECMG 1500/1503 07004KT

Decode

Departure Runways

ID Width Length Bearing (true) Bearing (mag) Surface Threshold Offset Overrun Length
07 148 ft / 45 m 6,558 ft / 1,999 m 63.80° 71.82° Asphalt 0 ft / 0 m 200 ft / 61 m
25 148 ft / 45 m 6,558 ft / 1,999 m 243.81° 251.83° Asphalt 0 ft / 0 m 200 ft / 61 m

RJAA

Details ICAO RJAA (NRT)
Name NARITA INTL
Region Japan
Timezone Asia/Tokyo (UTC+9.0)
Stats Elevation 141 ft / 43 m (AMSL)
Location 35.776552° 140.382770°
Runways 2
Magnetic Variation 7.405° W

METAR

RJAA 140030Z 30015KT 9999 FEW030 05/M07 Q1020 NOSIG RMK 1CU030 A3014

Decode

TAF

TAF RJAA 132306Z 1400/1506 33012KT 9999 FEW030= TAF RJBB 132305Z 1400/1506 34015KT 9999 FEW020 SCT050 BECMG 1415/1418 04008KT

Decode

Destination Runways

ID Width Length Bearing (true) Bearing (mag) Surface Threshold Offset Overrun Length
16L 196 ft / 60 m 7,162 ft / 2,183 m 149.61° 157.02° Asphalt 190 ft / 58 m 0 ft / 0 m
16R 196 ft / 60 m 13,142 ft / 4,006 m 149.61° 157.02° Asphalt 0 ft / 0 m 410 ft / 125 m
34L 196 ft / 60 m 13,142 ft / 4,006 m 329.62° 337.03° Asphalt 0 ft / 0 m 415 ft / 126 m
34R 196 ft / 60 m 7,162 ft / 2,183 m 329.62° 337.03° Asphalt 190 ft / 58 m 0 ft / 0 m

Approach Navaids

Runway Type Ident Frequency Range Bearing (true) Bearing (mag) Slope Elevation
16L Localiser ITM 110.70 MHz 18 nm / 33 km 149.62° 157.02° - 141 ft / 43 m (AMSL)
16L Glidescope ITM 110.70 MHz 10 nm / 19 km 149.62° 157.02° 3.00° 141 ft / 43 m (AMSL)
16L DME ITM 110.70 MHz 18 nm / 33 km - - - 145 ft / 44 m (AMSL)
16R Localiser IKF 111.50 MHz 18 nm / 33 km 149.63° 157.03° - 141 ft / 43 m (AMSL)
16R Glidescope IKF 111.50 MHz 10 nm / 19 km 149.62° 157.02° 3.00° 141 ft / 43 m (AMSL)
16R DME IKF 111.50 MHz 18 nm / 33 km - - - 145 ft / 44 m (AMSL)
34L Localiser IYQ 111.90 MHz 18 nm / 33 km 329.61° 337.01° - 141 ft / 43 m (AMSL)
34L Glidescope IYQ 111.90 MHz 10 nm / 19 km 329.62° 337.02° 3.00° 141 ft / 43 m (AMSL)
34L DME IYQ 111.90 MHz 18 nm / 33 km - - - 153 ft / 47 m (AMSL)
34R Localiser ITJ 110.90 MHz 18 nm / 33 km 329.62° 337.02° - 141 ft / 43 m (AMSL)
34R Glidescope ITJ 110.90 MHz 10 nm / 19 km 329.62° 337.02° 3.00° 141 ft / 43 m (AMSL)
34R DME ITJ 110.90 MHz 18 nm / 33 km - - - 148 ft / 45 m (AMSL)